createdAt,value
2022-11-20T00:00:18.205Z,100.00
2022-11-20T00:02:44.784Z,100.00
2022-11-20T00:05:11.410Z,100.00
2022-11-20T00:07:38.029Z,100.00
2022-11-20T00:10:04.996Z,100.00
2022-11-20T00:12:32.136Z,100.00
2022-11-20T00:14:58.696Z,100.00
2022-11-20T00:17:25.276Z,100.00
2022-11-20T00:19:51.915Z,100.00
2022-11-20T00:22:18.533Z,100.00
2022-11-20T00:24:45.149Z,100.00
2022-11-20T00:27:11.735Z,100.00
2022-11-20T00:29:38.313Z,100.00
2022-11-20T00:32:05.087Z,100.00
2022-11-20T00:34:31.685Z,100.00
2022-11-20T00:36:58.283Z,100.00
2022-11-20T00:39:24.860Z,100.00
2022-11-20T00:41:51.417Z,100.00
2022-11-20T00:44:18.102Z,100.00
2022-11-20T00:46:44.981Z,100.00
2022-11-20T00:49:11.595Z,100.00
2022-11-20T00:51:38.218Z,100.00
2022-11-20T00:54:04.832Z,100.00
2022-11-20T00:56:31.477Z,100.00
2022-11-20T00:59:00.933Z,100.00
2022-11-20T01:01:30.145Z,100.00
2022-11-20T01:04:00.094Z,100.00
2022-11-20T01:06:32.508Z,100.00
2022-11-20T01:09:01.880Z,100.00
2022-11-20T01:11:37.444Z,100.00
2022-11-20T01:14:07.159Z,100.00
2022-11-20T01:16:37.211Z,100.00
2022-11-20T01:19:06.695Z,100.00
2022-11-20T01:21:35.829Z,100.00
2022-11-20T01:24:03.835Z,100.00
2022-11-20T01:26:33.864Z,100.00
2022-11-20T01:29:01.664Z,100.00
2022-11-20T01:31:36.729Z,100.00
2022-11-20T01:34:10.299Z,100.00
2022-11-20T01:36:38.391Z,100.00
2022-11-20T01:39:08.412Z,100.00
2022-11-20T01:41:54.513Z,100.00
2022-11-20T01:44:23.824Z,100.00
2022-11-20T01:46:56.365Z,100.00
2022-11-20T01:49:30.236Z,100.00
2022-11-20T01:52:06.584Z,100.00
2022-11-20T01:54:40.000Z,100.00
2022-11-20T01:57:10.025Z,100.00
2022-11-20T01:59:44.399Z,100.00
2022-11-20T02:02:11.141Z,100.00
2022-11-20T02:04:38.008Z,100.00
2022-11-20T02:07:06.028Z,100.00
2022-11-20T02:09:32.725Z,100.00
2022-11-20T02:12:00.306Z,100.00
2022-11-20T02:14:27.513Z,100.00
2022-11-20T02:16:56.217Z,100.00
2022-11-20T02:19:30.986Z,100.00
2022-11-20T02:22:06.832Z,100.00
2022-11-20T02:24:33.527Z,100.00
2022-11-20T02:27:11.016Z,100.00
2022-11-20T02:29:49.460Z,100.00
2022-11-20T02:32:21.775Z,100.00
2022-11-20T02:34:48.430Z,100.00
2022-11-20T02:37:15.429Z,100.00
2022-11-20T02:39:43.104Z,100.00
2022-11-20T02:42:09.713Z,100.00
2022-11-20T02:44:36.420Z,100.00
2022-11-20T02:47:03.029Z,100.00
2022-11-20T02:49:29.657Z,100.00
2022-11-20T02:51:56.205Z,100.00
2022-11-20T02:54:22.806Z,100.00
2022-11-20T02:56:49.423Z,100.00
2022-11-20T02:59:16.138Z,100.00
2022-11-20T03:01:42.777Z,100.00
2022-11-20T03:04:09.496Z,100.00
2022-11-20T03:06:36.101Z,100.00
2022-11-20T03:09:03.099Z,100.00
2022-11-20T03:11:29.744Z,100.00
2022-11-20T03:13:56.405Z,100.00
2022-11-20T03:16:24.191Z,100.00
2022-11-20T03:18:53.310Z,100.00
2022-11-20T03:21:19.902Z,100.00
2022-11-20T03:23:46.473Z,100.00
2022-11-20T03:26:16.230Z,100.00
2022-11-20T03:28:49.098Z,100.00
2022-11-20T03:31:17.877Z,100.00
2022-11-20T03:33:44.561Z,100.00
2022-11-20T03:36:13.959Z,100.00
2022-11-20T03:38:41.282Z,100.00
2022-11-20T03:41:13.487Z,100.00
2022-11-20T03:43:40.405Z,100.00
2022-11-20T03:46:07.453Z,100.00
2022-11-20T03:48:34.281Z,100.00
2022-11-20T03:51:22.488Z,100.00
2022-11-20T03:53:50.523Z,100.00
2022-11-20T03:56:19.243Z,100.00
2022-11-20T03:58:45.925Z,100.00
2022-11-20T04:01:24.289Z,100.00
2022-11-20T04:03:53.391Z,100.00
2022-11-20T04:06:23.134Z,100.00
2022-11-20T04:08:53.859Z,100.00
2022-11-20T04:11:28.937Z,100.00
2022-11-20T04:13:58.128Z,100.00
2022-11-20T04:16:26.722Z,100.00
2022-11-20T04:18:54.519Z,100.00
2022-11-20T04:21:21.242Z,100.00
2022-11-20T04:23:47.881Z,100.00
2022-11-20T04:26:14.485Z,100.00
2022-11-20T04:28:41.079Z,100.00
2022-11-20T04:31:16.009Z,100.00
2022-11-20T04:33:43.322Z,100.00
2022-11-20T04:36:21.248Z,100.00
2022-11-20T04:38:56.500Z,100.00
2022-11-20T04:41:29.478Z,100.00
2022-11-20T04:44:00.766Z,100.00
2022-11-20T04:46:28.420Z,100.00
2022-11-20T04:48:55.692Z,100.00
2022-11-20T04:51:22.528Z,100.00
2022-11-20T04:53:49.336Z,100.00
2022-11-20T04:56:16.761Z,100.00
2022-11-20T04:58:43.484Z,100.00
2022-11-20T05:01:15.770Z,100.00
2022-11-20T05:03:43.623Z,100.00
2022-11-20T05:06:12.783Z,100.00
2022-11-20T05:08:39.543Z,100.00
2022-11-20T05:11:19.585Z,100.00
2022-11-20T05:13:46.191Z,100.00
2022-11-20T05:16:18.306Z,100.00
2022-11-20T05:18:45.577Z,100.00
2022-11-20T05:21:13.911Z,100.00
2022-11-20T05:23:41.545Z,100.00
2022-11-20T05:26:13.291Z,100.00
2022-11-20T05:28:39.887Z,100.00
2022-11-20T05:31:07.280Z,100.00
2022-11-20T05:33:35.938Z,100.00
2022-11-20T05:36:04.510Z,100.00
2022-11-20T05:38:31.536Z,100.00
2022-11-20T05:41:08.488Z,100.00
2022-11-20T05:43:39.268Z,100.00
2022-11-20T05:46:07.054Z,100.00
2022-11-20T05:48:34.502Z,100.00
2022-11-20T05:51:02.586Z,100.00
2022-11-20T05:53:29.723Z,100.00
2022-11-20T05:56:08.517Z,100.00
2022-11-20T05:58:35.250Z,100.00
2022-11-20T06:01:25.955Z,100.00
2022-11-20T06:03:54.361Z,100.00
2022-11-20T06:06:21.362Z,100.00
2022-11-20T06:08:48.421Z,100.00
2022-11-20T06:11:16.711Z,100.00
2022-11-20T06:13:43.859Z,100.00
2022-11-20T06:16:11.998Z,100.00
2022-11-20T06:18:38.967Z,100.00
2022-11-20T06:21:31.678Z,100.00
2022-11-20T06:23:58.490Z,100.00
2022-11-20T06:26:28.167Z,100.00
2022-11-20T06:28:57.169Z,100.00
2022-11-20T06:31:26.894Z,100.00
2022-11-20T06:33:54.193Z,100.00
2022-11-20T06:36:23.708Z,100.00
2022-11-20T06:38:50.882Z,100.00
2022-11-20T06:41:20.458Z,100.00
2022-11-20T06:43:47.643Z,100.00
2022-11-20T06:46:15.524Z,100.00
2022-11-20T06:48:42.117Z,100.00
2022-11-20T06:51:09.404Z,100.00
2022-11-20T06:53:36.902Z,100.00
2022-11-20T06:56:03.854Z,100.00
2022-11-20T06:58:33.345Z,100.00
2022-11-20T07:01:26.736Z,100.00
2022-11-20T07:03:54.632Z,100.00
2022-11-20T07:06:21.421Z,100.00
2022-11-20T07:08:48.108Z,100.00
2022-11-20T07:11:15.001Z,100.00
2022-11-20T07:13:41.743Z,100.00
2022-11-20T07:16:09.279Z,100.00
2022-11-20T07:18:36.687Z,100.00
2022-11-20T07:21:05.175Z,100.00
2022-11-20T07:23:32.102Z,100.00
2022-11-20T07:25:58.908Z,100.00
2022-11-20T07:28:25.518Z,100.00
2022-11-20T07:30:53.415Z,99.29
2022-11-20T07:33:20.725Z,99.49
2022-11-20T07:35:47.501Z,99.21
2022-11-20T07:38:14.195Z,99.89
2022-11-20T07:40:40.816Z,99.96
2022-11-20T07:43:07.498Z,99.27
2022-11-20T07:45:34.063Z,98.80
2022-11-20T07:48:00.707Z,97.82
2022-11-20T07:50:27.374Z,98.08
2022-11-20T07:53:01.743Z,98.03
2022-11-20T07:55:28.285Z,97.99
2022-11-20T07:57:58.155Z,97.54
2022-11-20T08:00:25.699Z,97.18
2022-11-20T08:02:52.523Z,96.66
2022-11-20T08:05:19.248Z,97.04
2022-11-20T08:07:46.090Z,96.99
2022-11-20T08:10:15.100Z,96.58
2022-11-20T08:13:08.557Z,94.83
2022-11-20T08:15:36.531Z,94.57
2022-11-20T08:20:52.165Z,95.13
2022-11-20T08:23:18.764Z,94.67
2022-11-20T08:25:50.664Z,94.36
2022-11-20T08:28:21.139Z,94.23
2022-11-20T08:30:48.699Z,93.40
2022-11-20T08:33:15.471Z,93.25
2022-11-20T08:35:42.826Z,93.92
2022-11-20T08:38:10.393Z,93.32
2022-11-20T08:40:38.195Z,92.25
2022-11-20T08:43:05.325Z,92.11
2022-11-20T08:45:34.542Z,92.32
2022-11-20T08:48:03.548Z,90.82
2022-11-20T08:50:33.208Z,90.70
2022-11-20T08:53:06.432Z,89.58
2022-11-20T08:55:33.549Z,88.86
2022-11-20T08:58:05.076Z,89.81
2022-11-20T09:00:31.624Z,90.40
2022-11-20T09:02:59.643Z,90.14
2022-11-20T09:05:26.295Z,90.56
2022-11-20T09:07:52.831Z,89.60
2022-11-20T09:10:24.660Z,90.80
2022-11-20T09:12:52.861Z,90.17
2022-11-20T09:15:20.538Z,89.50
2022-11-20T09:17:54.049Z,90.45
2022-11-20T09:20:20.737Z,90.81
2022-11-20T09:22:47.583Z,91.60
2022-11-20T09:25:14.202Z,91.26
2022-11-20T09:27:42.489Z,90.50
2022-11-20T09:30:09.681Z,91.34
2022-11-20T09:32:36.875Z,91.54
2022-11-20T09:35:03.597Z,92.10
2022-11-20T09:37:30.282Z,91.22
2022-11-20T09:39:56.860Z,91.00
2022-11-20T09:42:35.338Z,89.49
2022-11-20T09:45:22.708Z,88.63
2022-11-20T09:48:19.155Z,89.43
2022-11-20T09:51:27.136Z,89.70
2022-11-20T09:54:16.995Z,88.30
2022-11-20T09:56:51.281Z,86.36
2022-11-20T09:59:23.966Z,85.99
2022-11-20T10:01:51.254Z,85.54
2022-11-20T10:04:20.839Z,85.82
2022-11-20T10:07:31.549Z,86.13
2022-11-20T10:09:57.073Z,84.53
2022-11-20T10:12:33.589Z,85.35
2022-11-20T10:15:12.783Z,84.19
2022-11-20T10:17:56.380Z,84.88
2022-11-20T10:20:37.694Z,84.55
2022-11-20T10:23:43.296Z,82.46
2022-11-20T10:26:19.064Z,83.72
2022-11-20T10:29:08.813Z,84.21
2022-11-20T10:31:38.671Z,85.43
2022-11-20T10:34:29.678Z,86.24
2022-11-20T10:37:11.062Z,85.93
2022-11-20T10:39:52.096Z,85.80
2022-11-20T10:42:30.681Z,86.39
2022-11-20T10:45:30.766Z,85.89
2022-11-20T10:48:09.837Z,86.12
2022-11-20T10:50:41.480Z,86.89
2022-11-20T10:53:32.713Z,87.20
2022-11-20T10:56:06.774Z,86.52
2022-11-20T10:58:33.353Z,86.90
2022-11-20T11:01:20.519Z,87.36
2022-11-20T11:03:47.919Z,86.52
2022-11-20T11:06:23.033Z,86.68
2022-11-20T11:08:52.889Z,85.58
2022-11-20T11:11:24.294Z,85.47
2022-11-20T11:13:51.716Z,84.88
2022-11-20T11:16:27.513Z,84.88
2022-11-20T11:19:08.671Z,84.61
2022-11-20T11:21:36.814Z,84.05
2022-11-20T11:24:26.805Z,83.82
2022-11-20T11:26:59.998Z,81.52
2022-11-20T11:29:31.666Z,80.83
2022-11-20T11:32:24.418Z,81.52
2022-11-20T11:35:05.122Z,80.70
2022-11-20T11:37:37.159Z,80.14
2022-11-20T11:42:57.684Z,79.54
2022-11-20T11:45:25.370Z,80.12
2022-11-20T11:47:54.974Z,80.22
2022-11-20T11:50:22.084Z,80.30
2022-11-20T11:53:03.027Z,81.63
2022-11-20T11:55:50.568Z,80.82
2022-11-20T11:58:42.210Z,80.69
2022-11-20T12:01:25.826Z,82.39
2022-11-20T12:04:14.295Z,81.31
2022-11-20T12:06:46.465Z,81.15
2022-11-20T12:09:13.543Z,81.08
2022-11-20T12:11:48.425Z,80.59
2022-11-20T12:14:38.556Z,81.04
2022-11-20T12:17:05.930Z,81.28
2022-11-20T12:19:35.695Z,81.33
2022-11-20T12:22:17.124Z,81.08
2022-11-20T12:25:11.940Z,81.27
2022-11-20T12:27:41.421Z,81.13
2022-11-20T12:30:19.683Z,81.68
2022-11-20T12:33:21.449Z,82.17
2022-11-20T12:36:03.106Z,81.35
2022-11-20T12:38:57.408Z,80.77
2022-11-20T12:42:13.629Z,80.50
2022-11-20T12:45:07.824Z,81.39
2022-11-20T12:47:52.925Z,82.46
2022-11-20T12:50:22.129Z,82.75
2022-11-20T12:52:57.557Z,83.06
2022-11-20T12:55:55.237Z,82.11
2022-11-20T12:58:44.178Z,82.56
2022-11-20T13:01:40.257Z,83.03
2022-11-20T13:04:25.331Z,82.54
2022-11-20T13:06:52.406Z,82.79
2022-11-20T13:09:24.448Z,82.72
2022-11-20T13:12:20.223Z,82.38
2022-11-20T13:15:17.874Z,81.57
2022-11-20T13:17:54.178Z,81.57
2022-11-20T13:20:21.176Z,80.60
2022-11-20T13:22:58.815Z,78.65
2022-11-20T13:25:29.346Z,77.95
2022-11-20T13:27:58.243Z,77.44
2022-11-20T13:30:26.780Z,76.94
2022-11-20T13:33:24.114Z,77.96
2022-11-20T13:36:03.070Z,77.16
2022-11-20T13:38:41.483Z,77.54
2022-11-20T13:41:27.785Z,77.61
2022-11-20T13:43:58.777Z,78.10
2022-11-20T13:46:40.466Z,78.96
2022-11-20T13:49:17.591Z,79.03
2022-11-20T13:51:51.750Z,78.45
2022-11-20T13:54:53.939Z,79.03
2022-11-20T13:57:38.532Z,78.83
2022-11-20T14:00:23.337Z,79.67
2022-11-20T14:03:08.254Z,79.10
2022-11-20T14:05:41.399Z,79.41
2022-11-20T14:08:26.121Z,79.18
2022-11-20T14:11:04.209Z,79.67
2022-11-20T14:13:30.821Z,79.94
2022-11-20T14:16:00.651Z,79.47
2022-11-20T14:18:28.691Z,80.15
2022-11-20T14:20:55.416Z,80.36
2022-11-20T14:23:30.336Z,79.80
2022-11-20T14:25:57.900Z,79.44
2022-11-20T14:28:30.459Z,80.25
2022-11-20T14:30:58.212Z,81.23
2022-11-20T14:33:27.614Z,80.86
2022-11-20T14:35:57.464Z,80.05
2022-11-20T14:38:29.833Z,79.33
2022-11-20T14:41:08.134Z,79.43
2022-11-20T14:43:37.140Z,79.43
2022-11-20T14:46:06.660Z,80.13
2022-11-20T14:48:47.795Z,81.08
2022-11-20T14:51:42.150Z,80.95
2022-11-20T14:54:09.670Z,81.37
2022-11-20T14:56:36.252Z,82.23
2022-11-20T14:59:03.181Z,83.04
2022-11-20T15:01:31.727Z,84.11
2022-11-20T15:04:11.269Z,85.30
2022-11-20T15:06:39.273Z,84.57
2022-11-20T15:09:06.513Z,84.86
2022-11-20T15:11:36.074Z,85.05
2022-11-20T15:14:06.923Z,86.18
2022-11-20T15:16:34.114Z,85.54
2022-11-20T15:19:02.901Z,86.34
2022-11-20T15:21:30.386Z,86.54
2022-11-20T15:23:58.119Z,85.86
2022-11-20T15:26:29.015Z,85.09
2022-11-20T15:28:56.163Z,86.03
2022-11-20T15:31:24.860Z,85.01
2022-11-20T15:33:51.776Z,85.97
2022-11-20T15:36:18.372Z,85.75
2022-11-20T15:38:44.981Z,85.92
2022-11-20T15:41:11.690Z,86.41
2022-11-20T15:43:38.466Z,85.92
2022-11-20T15:46:10.339Z,86.73
2022-11-20T15:48:47.387Z,87.63
2022-11-20T15:51:43.953Z,87.44
2022-11-20T15:54:13.466Z,87.47
2022-11-20T15:56:40.104Z,88.59
2022-11-20T15:59:06.845Z,88.96
2022-11-20T16:01:33.586Z,89.89
2022-11-20T16:04:01.204Z,89.69
2022-11-20T16:06:27.879Z,89.44
2022-11-20T16:08:54.503Z,89.39
2022-11-20T16:11:21.115Z,89.99
2022-11-20T16:14:06.082Z,90.20
2022-11-20T16:16:35.657Z,91.15
2022-11-20T16:19:02.453Z,91.01
2022-11-20T16:21:32.524Z,91.82
2022-11-20T16:24:00.814Z,91.97
2022-11-20T16:26:27.534Z,92.18
2022-11-20T16:28:55.249Z,92.70
2022-11-20T16:31:22.670Z,92.86
2022-11-20T16:33:54.267Z,92.82
2022-11-20T16:36:22.973Z,93.02
2022-11-20T16:38:54.175Z,93.75
2022-11-20T16:41:21.040Z,95.11
2022-11-20T16:43:52.671Z,95.33
2022-11-20T16:46:22.875Z,95.65
2022-11-20T16:49:07.190Z,96.93
2022-11-20T16:51:36.921Z,96.55
2022-11-20T16:54:05.818Z,96.20
2022-11-20T16:56:32.808Z,96.95
2022-11-20T16:59:00.661Z,97.47
2022-11-20T17:01:28.946Z,98.12
2022-11-20T17:03:56.951Z,99.39
2022-11-20T17:06:26.523Z,99.25
2022-11-20T17:08:55.078Z,99.93
2022-11-20T17:11:21.869Z,99.72
2022-11-20T17:13:49.030Z,100.00
2022-11-20T17:16:18.704Z,100.00
2022-11-20T17:18:45.967Z,100.00
2022-11-20T17:21:13.397Z,100.00
2022-11-20T17:23:44.876Z,100.00
2022-11-20T17:26:17.896Z,100.00
2022-11-20T17:28:55.998Z,100.00
2022-11-20T17:31:22.847Z,100.00
2022-11-20T17:33:49.584Z,100.00
2022-11-20T17:36:17.865Z,100.00
2022-11-20T17:38:45.220Z,100.00
2022-11-20T17:41:17.862Z,100.00
2022-11-20T17:43:45.056Z,100.00
2022-11-20T17:46:17.578Z,100.00
2022-11-20T17:48:45.888Z,100.00
2022-11-20T17:51:15.769Z,100.00
2022-11-20T17:53:44.728Z,100.00
2022-11-20T17:56:30.306Z,100.00
2022-11-20T17:58:57.477Z,100.00
2022-11-20T18:01:24.406Z,100.00
2022-11-20T18:03:51.580Z,100.00
2022-11-20T18:06:20.432Z,100.00
2022-11-20T18:08:47.534Z,100.00
2022-11-20T18:11:35.822Z,100.00
2022-11-20T18:14:24.760Z,100.00
2022-11-20T18:16:54.191Z,100.00
2022-11-20T18:19:29.977Z,100.00
2022-11-20T18:22:00.114Z,100.00
2022-11-20T18:24:26.981Z,100.00
2022-11-20T18:26:53.552Z,100.00
2022-11-20T18:29:20.213Z,100.00
2022-11-20T18:31:46.876Z,100.00
2022-11-20T18:34:14.287Z,100.00
2022-11-20T18:36:42.655Z,100.00
2022-11-20T18:39:11.169Z,100.00
2022-11-20T18:41:56.824Z,100.00
2022-11-20T18:44:47.668Z,100.00
2022-11-20T18:47:23.127Z,100.00
2022-11-20T18:49:52.745Z,100.00
2022-11-20T18:52:21.487Z,100.00
2022-11-20T18:54:48.464Z,100.00
2022-11-20T18:57:17.843Z,100.00
2022-11-20T18:59:44.535Z,100.00
2022-11-20T19:02:16.498Z,100.00
2022-11-20T19:04:43.375Z,100.00
2022-11-20T19:07:12.169Z,100.00
2022-11-20T19:09:43.223Z,100.00
2022-11-20T19:12:11.477Z,100.00
2022-11-20T19:14:38.403Z,100.00
2022-11-20T19:17:06.791Z,100.00
2022-11-20T19:19:34.687Z,100.00
2022-11-20T19:22:01.346Z,100.00
2022-11-20T19:24:28.552Z,100.00
2022-11-20T19:26:56.207Z,100.00
2022-11-20T19:29:24.187Z,100.00
2022-11-20T19:31:51.318Z,100.00
2022-11-20T19:34:18.134Z,100.00
2022-11-20T19:36:45.205Z,100.00
2022-11-20T19:39:12.824Z,100.00
2022-11-20T19:41:40.979Z,100.00
2022-11-20T19:44:11.782Z,100.00
2022-11-20T19:46:40.986Z,100.00
2022-11-20T19:49:10.346Z,100.00
2022-11-20T19:51:38.669Z,100.00
2022-11-20T19:54:06.476Z,100.00
2022-11-20T19:56:34.348Z,100.00
2022-11-20T19:59:01.779Z,100.00
2022-11-20T20:01:30.889Z,100.00
2022-11-20T20:04:02.599Z,100.00
2022-11-20T20:06:29.571Z,100.00
2022-11-20T20:08:58.435Z,100.00
2022-11-20T20:11:27.318Z,100.00
2022-11-20T20:13:55.979Z,100.00
2022-11-20T20:16:25.185Z,100.00
2022-11-20T20:18:59.540Z,100.00
2022-11-20T20:21:26.206Z,100.00
2022-11-20T20:23:56.033Z,100.00
2022-11-20T20:26:24.172Z,100.00
2022-11-20T20:28:50.971Z,100.00
2022-11-20T20:31:19.997Z,100.00
2022-11-20T20:33:46.893Z,100.00
2022-11-20T20:36:15.602Z,100.00
2022-11-20T20:38:43.384Z,100.00
2022-11-20T20:41:10.280Z,100.00
2022-11-20T20:43:57.686Z,100.00
2022-11-20T20:46:25.053Z,100.00
2022-11-20T20:48:54.642Z,100.00
2022-11-20T20:51:21.999Z,100.00
2022-11-20T20:53:49.325Z,100.00
2022-11-20T20:56:16.680Z,100.00
2022-11-20T20:58:43.383Z,100.00
2022-11-20T21:01:13.167Z,100.00
2022-11-20T21:03:40.481Z,100.00
2022-11-20T21:06:09.826Z,100.00
2022-11-20T21:08:40.104Z,100.00
2022-11-20T21:11:14.441Z,100.00
2022-11-20T21:13:42.957Z,100.00
2022-11-20T21:16:10.672Z,100.00
2022-11-20T21:18:37.257Z,100.00
2022-11-20T21:21:27.645Z,100.00
2022-11-20T21:23:54.323Z,100.00
2022-11-20T21:26:22.021Z,100.00
2022-11-20T21:28:50.007Z,100.00
2022-11-20T21:31:21.872Z,100.00
2022-11-20T21:33:50.634Z,100.00
2022-11-20T21:36:19.461Z,100.00
2022-11-20T21:38:46.643Z,100.00
2022-11-20T21:41:14.855Z,100.00
2022-11-20T21:43:42.922Z,100.00
2022-11-20T21:46:12.291Z,100.00
2022-11-20T21:48:40.068Z,100.00
2022-11-20T21:51:18.896Z,100.00
2022-11-20T21:53:47.126Z,100.00
2022-11-20T21:56:20.068Z,100.00
2022-11-20T21:58:47.819Z,100.00
2022-11-20T22:01:22.006Z,100.00
2022-11-20T22:03:50.538Z,100.00
2022-11-20T22:06:17.985Z,100.00
2022-11-20T22:08:44.850Z,100.00
2022-11-20T22:11:17.925Z,100.00
2022-11-20T22:14:03.340Z,100.00
2022-11-20T22:16:30.249Z,100.00
2022-11-20T22:18:58.683Z,100.00
2022-11-20T22:21:28.326Z,100.00
2022-11-20T22:23:55.413Z,100.00
2022-11-20T22:26:38.783Z,100.00
2022-11-20T22:29:07.453Z,100.00
2022-11-20T22:31:34.080Z,100.00
2022-11-20T22:34:02.444Z,100.00
2022-11-20T22:36:30.933Z,100.00
2022-11-20T22:38:58.356Z,100.00
2022-11-20T22:41:27.384Z,100.00
2022-11-20T22:43:56.407Z,100.00
2022-11-20T22:46:23.950Z,100.00
2022-11-20T22:48:58.347Z,100.00
2022-11-20T22:51:33.528Z,100.00
2022-11-20T22:54:01.287Z,100.00
2022-11-20T22:56:27.902Z,100.00
2022-11-20T22:58:54.826Z,100.00
2022-11-20T23:01:22.766Z,100.00
2022-11-20T23:03:52.108Z,100.00
2022-11-20T23:06:20.629Z,100.00
2022-11-20T23:08:48.392Z,100.00
2022-11-20T23:11:18.152Z,100.00
2022-11-20T23:13:45.972Z,100.00
2022-11-20T23:16:15.448Z,100.00
2022-11-20T23:18:43.106Z,100.00
2022-11-20T23:21:18.424Z,100.00
2022-11-20T23:23:50.025Z,100.00
2022-11-20T23:26:18.313Z,100.00
2022-11-20T23:28:45.315Z,100.00
2022-11-20T23:31:13.623Z,100.00
2022-11-20T23:33:42.140Z,100.00
2022-11-20T23:36:09.236Z,100.00
2022-11-20T23:38:36.149Z,100.00
2022-11-20T23:41:03.503Z,100.00
2022-11-20T23:43:30.454Z,100.00
2022-11-20T23:45:58.939Z,100.00
2022-11-20T23:48:28.700Z,100.00
2022-11-20T23:50:55.773Z,100.00
2022-11-20T23:53:23.151Z,100.00
2022-11-20T23:55:52.762Z,100.00
2022-11-20T23:58:20.802Z,100.00
